TimePST,TemperatureF,Dew PointF,Humidity,Sea Level PressureIn,VisibilityMPH,Wind Direction,Wind SpeedMPH,Gust SpeedMPH,PrecipitationIn,Events,Conditions,WindDirDegrees,DateUTC
12:53 AM,36.0,34.0,93,30.16,10.0,Calm,Calm,-,N/A,,Scattered Clouds,0,2013-02-21 08:53:00
1:53 AM,37.0,35.1,93,30.17,10.0,Calm,Calm,-,N/A,,Mostly Cloudy,0,2013-02-21 09:53:00
2:53 AM,36.0,34.0,93,30.18,10.0,Calm,Calm,-,N/A,,Scattered Clouds,0,2013-02-21 10:53:00
3:53 AM,34.0,33.1,96,30.20,7.0,Calm,Calm,-,N/A,,Mostly Cloudy,0,2013-02-21 11:53:00
4:53 AM,35.1,33.1,92,30.22,8.0,Calm,Calm,-,N/A,,Overcast,0,2013-02-21 12:53:00
5:53 AM,35.1,34.0,96,30.22,6.0,West,3.5,-,N/A,,Overcast,260,2013-02-21 13:53:00
6:44 AM,33.8,33.8,100,30.21,8.0,Calm,Calm,-,N/A,,Overcast,0,2013-02-21 14:44:00
6:53 AM,34.0,32.0,92,30.23,8.0,Calm,Calm,-,N/A,,Overcast,0,2013-02-21 14:53:00
7:09 AM,33.8,33.8,100,30.22,6.0,Calm,Calm,-,N/A,,Overcast,0,2013-02-21 15:09:00
7:53 AM,35.1,33.1,92,30.26,6.0,North,3.5,-,N/A,,Overcast,360,2013-02-21 15:53:00
8:43 AM,35.6,33.8,93,30.24,10.0,Calm,Calm,-,N/A,,Overcast,0,2013-02-21 16:43:00
8:53 AM,37.0,34.0,89,30.27,9.0,Calm,Calm,-,N/A,,Overcast,0,2013-02-21 16:53:00
9:53 AM,39.9,35.1,83,30.28,10.0,Calm,Calm,-,N/A,,Mostly Cloudy,0,2013-02-21 17:53:00
10:00 AM,39.2,35.6,87,30.25,10.0,Calm,Calm,-,N/A,,Mostly Cloudy,0,2013-02-21 18:00:00
10:53 AM,43.0,34.0,71,30.27,10.0,Calm,Calm,-,N/A,,Mostly Cloudy,0,2013-02-21 18:53:00
11:41 AM,46.4,33.8,62,30.26,10.0,Calm,Calm,-,N/A,,Overcast,0,2013-02-21 19:41:00
11:53 AM,45.0,34.0,65,30.28,10.0,Variable,4.6,-,N/A,,Overcast,0,2013-02-21 19:53:00
12:53 PM,46.0,30.9,56,30.26,10.0,Calm,Calm,-,N/A,,Overcast,0,2013-02-21 20:53:00
1:53 PM,46.0,30.9,56,30.25,10.0,Calm,Calm,-,N/A,,Overcast,0,2013-02-21 21:53:00
2:53 PM,46.9,30.0,52,30.23,10.0,Calm,Calm,-,N/A,,Overcast,0,2013-02-21 22:53:00
3:53 PM,46.9,30.0,52,30.23,10.0,NNW,4.6,-,N/A,,Overcast,340,2013-02-21 23:53:00
4:53 PM,46.0,30.0,54,30.23,10.0,NNW,3.5,-,N/A,,Overcast,340,2013-02-22 00:53:00
5:53 PM,45.0,32.0,60,30.24,9.0,WNW,5.8,-,N/A,,Overcast,300,2013-02-22 01:53:00
6:53 PM,44.1,32.0,63,30.25,9.0,NNW,3.5,-,N/A,,Overcast,330,2013-02-22 02:53:00
7:53 PM,43.0,34.0,71,30.26,9.0,Calm,Calm,-,N/A,,Overcast,0,2013-02-22 03:53:00
8:53 PM,42.1,35.1,76,30.27,9.0,NE,4.6,-,N/A,,Overcast,40,2013-02-22 04:53:00
9:53 PM,42.1,34.0,73,30.28,10.0,Calm,Calm,-,N/A,,Overcast,0,2013-02-22 05:53:00
11:53 PM,39.0,35.1,86,30.29,10.0,Calm,Calm,-,N/A,,Overcast,0,2013-02-22 07:53:00